createdAt,value
2022-10-08T00:02:10.217Z,7.20
2022-10-08T00:04:37.946Z,7.13
2022-10-08T00:07:05.675Z,7.09
2022-10-08T00:09:33.281Z,7.07
2022-10-08T00:12:00.983Z,7.09
2022-10-08T00:14:30.049Z,7.07
2022-10-08T00:16:57.690Z,7.10
2022-10-08T00:19:25.323Z,7.08
2022-10-08T00:21:56.854Z,7.10
2022-10-08T00:24:24.908Z,7.07
2022-10-08T00:26:52.522Z,7.05
2022-10-08T00:29:22.359Z,7.08
2022-10-08T00:31:52.499Z,7.09
2022-10-08T00:34:23.207Z,7.12
2022-10-08T00:36:52.279Z,7.37
2022-10-08T00:39:22.273Z,7.54
2022-10-08T00:41:52.216Z,7.62
2022-10-08T00:44:50.767Z,7.72
2022-10-08T00:47:25.635Z,7.73
2022-10-08T00:49:56.943Z,7.68
2022-10-08T00:52:28.039Z,7.61
2022-10-08T00:54:56.042Z,7.50
2022-10-08T00:57:24.117Z,7.45
2022-10-08T00:59:51.741Z,7.38
2022-10-08T01:02:20.723Z,7.28
2022-10-08T01:04:49.327Z,7.24
2022-10-08T01:07:22.638Z,7.22
2022-10-08T01:09:57.617Z,7.19
2022-10-08T01:12:35.301Z,7.14
2022-10-08T01:15:08.959Z,7.09
2022-10-08T01:17:48.359Z,7.17
2022-10-08T01:20:34.511Z,7.28
2022-10-08T01:23:29.747Z,7.69
2022-10-08T01:26:05.090Z,7.75
2022-10-08T01:28:40.028Z,7.85
2022-10-08T01:31:10.715Z,7.76
2022-10-08T01:33:43.949Z,7.95
2022-10-08T01:36:14.849Z,7.89
2022-10-08T01:38:49.317Z,7.83
2022-10-08T01:41:19.109Z,7.82
2022-10-08T01:43:54.029Z,7.88
2022-10-08T01:46:27.833Z,8.11
2022-10-08T01:49:01.650Z,8.19
2022-10-08T01:51:33.311Z,8.46
2022-10-08T01:54:04.400Z,8.70
2022-10-08T01:56:34.106Z,8.91
2022-10-08T01:59:07.502Z,9.06
2022-10-08T02:01:41.060Z,9.19
2022-10-08T02:04:25.999Z,9.21
2022-10-08T02:06:57.590Z,9.33
2022-10-08T02:09:26.535Z,9.47
2022-10-08T02:11:54.535Z,9.60
2022-10-08T02:14:27.411Z,9.70
2022-10-08T02:17:02.918Z,9.76
2022-10-08T02:19:34.286Z,9.77
2022-10-08T02:22:05.084Z,9.84
2022-10-08T02:24:39.105Z,9.87
2022-10-08T02:27:09.923Z,9.93
2022-10-08T02:29:44.182Z,9.96
2022-10-08T02:32:19.915Z,9.99
2022-10-08T02:34:51.824Z,10.00
2022-10-08T02:37:24.518Z,10.01
2022-10-08T02:39:57.754Z,10.01
2022-10-08T02:42:28.716Z,9.99
2022-10-08T02:45:02.855Z,10.00
2022-10-08T02:47:34.032Z,10.01
2022-10-08T02:50:04.801Z,10.00
2022-10-08T02:52:36.920Z,10.00
2022-10-08T02:55:13.491Z,10.04
2022-10-08T02:57:46.027Z,10.03
2022-10-08T03:00:15.500Z,10.04
2022-10-08T03:02:48.019Z,10.06
2022-10-08T03:05:20.414Z,10.08
2022-10-08T03:07:51.549Z,10.07
2022-10-08T03:10:19.870Z,10.08
2022-10-08T03:12:48.499Z,10.08
2022-10-08T03:15:17.862Z,10.08
2022-10-08T03:17:48.245Z,10.10
2022-10-08T03:20:16.066Z,10.12
2022-10-08T03:22:44.181Z,10.15
2022-10-08T03:25:11.965Z,10.17
2022-10-08T03:27:39.599Z,10.15
2022-10-08T03:30:08.453Z,10.18
2022-10-08T03:32:37.445Z,10.21
2022-10-08T03:35:05.563Z,10.20
2022-10-08T03:37:33.189Z,10.21
2022-10-08T03:40:00.939Z,10.18
2022-10-08T03:42:28.575Z,10.19
2022-10-08T03:44:56.280Z,10.23
2022-10-08T03:47:23.928Z,10.25
2022-10-08T03:49:52.934Z,10.33
2022-10-08T03:52:20.531Z,10.40
2022-10-08T03:54:48.224Z,10.42
2022-10-08T03:57:15.851Z,10.46
2022-10-08T03:59:43.464Z,10.50
2022-10-08T04:02:11.124Z,10.50
2022-10-08T04:04:38.782Z,10.56
2022-10-08T04:07:07.771Z,10.61
2022-10-08T04:09:35.417Z,10.59
2022-10-08T04:12:03.061Z,10.57
2022-10-08T04:14:30.673Z,10.52
2022-10-08T04:16:58.310Z,10.54
2022-10-08T04:19:26.117Z,10.55
2022-10-08T04:21:53.721Z,10.56
2022-10-08T04:24:22.709Z,10.52
2022-10-08T04:26:50.401Z,10.56
2022-10-08T04:29:18.018Z,10.60
2022-10-08T04:31:45.689Z,10.63
2022-10-08T04:34:13.489Z,10.66
2022-10-08T04:36:41.322Z,10.69
2022-10-08T04:39:09.194Z,10.67
2022-10-08T04:41:38.187Z,10.68
2022-10-08T04:44:05.832Z,10.70
2022-10-08T04:46:33.591Z,10.70
2022-10-08T04:49:01.297Z,10.73
2022-10-08T04:51:29.447Z,10.73
2022-10-08T04:53:58.065Z,10.76
2022-10-08T04:56:28.809Z,10.79
2022-10-08T04:58:58.425Z,10.80
2022-10-08T05:01:27.518Z,10.80
2022-10-08T05:03:56.371Z,10.80
2022-10-08T05:06:26.979Z,10.81
2022-10-08T05:08:55.305Z,10.81
2022-10-08T05:11:25.260Z,10.85
2022-10-08T05:13:53.827Z,10.86
2022-10-08T05:16:23.360Z,10.89
2022-10-08T05:18:52.088Z,10.89
2022-10-08T05:21:22.119Z,10.90
2022-10-08T05:23:55.628Z,10.96
2022-10-08T05:26:41.500Z,11.01
2022-10-08T05:29:12.749Z,11.06
2022-10-08T05:31:41.701Z,11.09
2022-10-08T05:34:09.430Z,11.11
2022-10-08T05:36:37.170Z,11.14
2022-10-08T05:39:06.811Z,11.13
2022-10-08T05:41:36.795Z,11.13
2022-10-08T05:44:05.819Z,11.13
2022-10-08T05:46:35.265Z,11.15
2022-10-08T05:49:06.043Z,11.12
2022-10-08T05:51:33.825Z,11.15
2022-10-08T05:54:01.675Z,11.19
2022-10-08T05:56:31.470Z,11.22
2022-10-08T05:58:59.136Z,11.30
2022-10-08T06:01:28.895Z,11.38
2022-10-08T06:03:58.557Z,11.48
2022-10-08T06:06:28.053Z,11.56
2022-10-08T06:08:57.752Z,11.58
2022-10-08T06:11:25.543Z,11.59
2022-10-08T06:13:54.038Z,11.59
2022-10-08T06:16:22.295Z,11.65
2022-10-08T06:18:50.047Z,11.70
2022-10-08T06:21:20.102Z,11.79
2022-10-08T06:23:50.641Z,11.89
2022-10-08T06:26:18.965Z,11.96
2022-10-08T06:28:47.084Z,12.06
2022-10-08T06:31:14.991Z,12.18
2022-10-08T06:33:42.841Z,12.29
2022-10-08T06:36:16.833Z,12.40
2022-10-08T06:38:45.032Z,12.47
2022-10-08T06:41:14.056Z,12.56
2022-10-08T06:43:41.645Z,12.62
2022-10-08T06:46:09.348Z,12.65
2022-10-08T06:48:37.000Z,12.75
2022-10-08T06:51:07.507Z,12.82
2022-10-08T06:53:35.591Z,12.87
2022-10-08T06:56:06.057Z,12.93
2022-10-08T06:58:35.799Z,13.03
2022-10-08T07:01:05.525Z,13.16
2022-10-08T07:03:33.605Z,13.33
2022-10-08T07:06:02.294Z,13.53
2022-10-08T07:08:30.625Z,13.73
2022-10-08T07:11:05.080Z,14.01
2022-10-08T07:13:33.035Z,14.21
2022-10-08T07:16:07.718Z,14.42
2022-10-08T07:18:36.865Z,14.57
2022-10-08T07:21:05.981Z,14.63
2022-10-08T07:23:34.105Z,14.72
2022-10-08T07:26:04.094Z,14.75
2022-10-08T07:28:33.885Z,14.82
2022-10-08T07:31:05.695Z,14.92
2022-10-08T07:33:33.533Z,15.02
2022-10-08T07:36:09.223Z,15.07
2022-10-08T07:38:36.875Z,15.15
2022-10-08T07:41:04.894Z,15.26
2022-10-08T07:43:32.628Z,15.31
2022-10-08T07:46:00.347Z,15.49
2022-10-08T07:48:34.055Z,15.56
2022-10-08T07:51:08.562Z,15.67
2022-10-08T07:53:36.594Z,15.79
2022-10-08T07:56:04.607Z,15.83
2022-10-08T07:58:32.399Z,15.96
2022-10-08T08:01:01.356Z,16.04
2022-10-08T08:03:30.695Z,16.04
2022-10-08T08:06:02.052Z,16.12
2022-10-08T08:08:29.882Z,16.32
2022-10-08T08:10:58.606Z,16.33
2022-10-08T08:13:26.905Z,16.44
2022-10-08T08:15:59.212Z,16.47
2022-10-08T08:18:30.815Z,16.57
2022-10-08T08:20:59.972Z,16.69
2022-10-08T08:23:31.325Z,16.87
2022-10-08T08:26:01.809Z,17.02
2022-10-08T08:28:29.827Z,17.17
2022-10-08T08:31:06.852Z,17.32
2022-10-08T08:33:35.925Z,17.43
2022-10-08T08:36:03.657Z,17.45
2022-10-08T08:38:31.333Z,17.47
2022-10-08T08:41:12.775Z,17.60
2022-10-08T08:43:41.877Z,17.70
2022-10-08T08:46:15.065Z,17.87
2022-10-08T08:48:46.459Z,17.97
2022-10-08T08:51:14.207Z,18.03
2022-10-08T08:53:41.983Z,18.06
2022-10-08T08:56:14.011Z,18.13
2022-10-08T08:58:43.866Z,18.22
2022-10-08T09:01:22.236Z,18.20
2022-10-08T09:03:53.961Z,18.22
2022-10-08T09:06:25.874Z,18.30
2022-10-08T09:08:57.406Z,18.40
2022-10-08T09:11:26.020Z,18.32
2022-10-08T09:13:57.643Z,18.34
2022-10-08T09:16:28.665Z,18.30
2022-10-08T09:18:57.726Z,18.44
2022-10-08T09:21:29.998Z,18.66
2022-10-08T09:23:57.676Z,18.83
2022-10-08T09:26:27.101Z,18.89
2022-10-08T09:28:57.099Z,18.84
2022-10-08T09:31:27.688Z,18.84
2022-10-08T09:34:02.110Z,18.73
2022-10-08T09:36:32.165Z,18.72
2022-10-08T09:39:01.261Z,18.82
2022-10-08T09:41:30.288Z,18.89
2022-10-08T09:44:17.126Z,18.93
2022-10-08T09:46:46.031Z,19.01
2022-10-08T09:49:32.157Z,19.29
2022-10-08T09:52:04.994Z,19.40
2022-10-08T09:54:37.066Z,19.45
2022-10-08T09:57:07.272Z,19.22
2022-10-08T09:59:49.232Z,19.43
2022-10-08T10:02:30.061Z,19.69
2022-10-08T10:05:00.327Z,19.90
2022-10-08T10:07:39.598Z,20.10
2022-10-08T10:10:17.192Z,20.10
2022-10-08T10:12:49.761Z,20.14
2022-10-08T10:15:21.807Z,20.31
2022-10-08T10:17:53.725Z,20.49
2022-10-08T10:20:28.094Z,20.53
2022-10-08T10:22:58.826Z,20.25
2022-10-08T10:25:35.720Z,19.83
2022-10-08T10:28:08.292Z,19.70
2022-10-08T10:30:47.614Z,19.53
2022-10-08T10:33:19.824Z,19.15
2022-10-08T10:35:51.716Z,19.13
2022-10-08T10:38:25.061Z,19.18
2022-10-08T10:41:04.710Z,18.95
2022-10-08T10:43:39.968Z,18.83
2022-10-08T10:46:24.765Z,18.75
2022-10-08T10:48:52.667Z,18.39
2022-10-08T10:51:33.161Z,18.44
2022-10-08T10:54:14.009Z,18.31
2022-10-08T10:56:50.245Z,18.25
2022-10-08T10:59:41.187Z,18.12
2022-10-08T11:02:19.612Z,18.29
2022-10-08T11:05:01.571Z,18.34
2022-10-08T11:08:07.488Z,18.33
2022-10-08T11:10:47.566Z,18.15
2022-10-08T11:13:30.788Z,18.02
2022-10-08T11:16:12.266Z,17.78
2022-10-08T11:18:48.661Z,17.87
2022-10-08T11:21:31.650Z,17.73
2022-10-08T11:24:17.465Z,17.48
2022-10-08T11:26:54.127Z,17.46
2022-10-08T11:29:27.672Z,17.46
2022-10-08T11:31:55.599Z,17.52
2022-10-08T11:34:28.499Z,17.53
2022-10-08T11:37:05.269Z,17.46
2022-10-08T11:39:43.309Z,17.42
2022-10-08T11:42:18.602Z,17.45
2022-10-08T11:44:46.400Z,17.46
2022-10-08T11:47:36.679Z,17.43
2022-10-08T11:50:06.456Z,17.36
2022-10-08T11:52:35.272Z,17.49
2022-10-08T11:55:04.773Z,17.51
2022-10-08T11:58:06.052Z,17.44
2022-10-08T12:00:35.718Z,17.37
2022-10-08T12:03:06.116Z,17.22
2022-10-08T12:05:41.331Z,17.19
2022-10-08T12:08:09.187Z,17.00
2022-10-08T12:10:39.312Z,17.03
2022-10-08T12:13:26.374Z,17.00
2022-10-08T12:15:56.466Z,17.13
2022-10-08T12:18:44.386Z,17.04
2022-10-08T12:21:51.612Z,17.14
2022-10-08T12:24:52.464Z,17.10
2022-10-08T12:27:41.437Z,17.11
2022-10-08T12:30:11.955Z,17.07
2022-10-08T12:32:58.551Z,17.03
2022-10-08T12:35:29.714Z,17.09
2022-10-08T12:38:10.730Z,17.14
2022-10-08T12:40:42.863Z,17.10
2022-10-08T12:43:24.444Z,17.07
2022-10-08T12:45:58.424Z,17.01
2022-10-08T12:48:34.088Z,16.97
2022-10-08T12:51:14.721Z,16.70
2022-10-08T12:53:45.699Z,16.73
2022-10-08T12:56:24.423Z,16.74
2022-10-08T12:58:55.648Z,16.77
2022-10-08T13:01:24.195Z,16.83
2022-10-08T13:04:10.605Z,16.72
2022-10-08T13:06:38.325Z,16.87
2022-10-08T13:09:31.788Z,16.75
2022-10-08T13:12:03.427Z,16.65
2022-10-08T13:14:35.682Z,16.66
2022-10-08T13:17:04.388Z,16.60
2022-10-08T13:19:34.627Z,16.54
2022-10-08T13:22:05.149Z,16.53
2022-10-08T13:24:43.377Z,16.53
2022-10-08T13:27:25.644Z,16.42
2022-10-08T13:29:55.256Z,16.12
2022-10-08T13:32:25.718Z,16.08
2022-10-08T13:34:55.938Z,16.02
2022-10-08T13:37:33.360Z,15.96
2022-10-08T13:40:03.770Z,15.76
2022-10-08T13:42:34.332Z,15.72
2022-10-08T13:45:13.221Z,15.74
2022-10-08T13:47:40.892Z,15.68
2022-10-08T13:50:09.296Z,15.69
2022-10-08T13:52:40.480Z,15.70
2022-10-08T13:55:26.080Z,15.70
2022-10-08T13:57:54.412Z,15.67
2022-10-08T14:00:24.104Z,15.70
2022-10-08T14:02:52.417Z,15.64
2022-10-08T14:05:20.287Z,15.58
2022-10-08T14:07:50.209Z,15.59
2022-10-08T14:10:19.299Z,15.55
2022-10-08T14:12:46.988Z,15.59
2022-10-08T14:15:16.807Z,15.47
2022-10-08T14:17:46.103Z,15.31
2022-10-08T14:20:14.133Z,15.27
2022-10-08T14:22:41.967Z,15.22
2022-10-08T14:25:16.281Z,15.15
2022-10-08T14:27:43.944Z,15.07
2022-10-08T14:30:13.301Z,14.96
2022-10-08T14:32:41.094Z,14.91
2022-10-08T14:35:11.420Z,14.81
2022-10-08T14:37:39.945Z,14.69
2022-10-08T14:40:10.141Z,14.65
2022-10-08T14:42:37.827Z,14.63
2022-10-08T14:45:06.375Z,14.53
2022-10-08T14:47:34.091Z,14.50
2022-10-08T14:50:01.711Z,14.47
2022-10-08T14:52:30.725Z,14.41
2022-10-08T14:54:58.343Z,14.33
2022-10-08T14:57:26.008Z,14.31
2022-10-08T14:59:53.720Z,14.26
2022-10-08T15:02:21.429Z,14.28
2022-10-08T15:04:51.566Z,14.17
2022-10-08T15:07:19.424Z,14.08
2022-10-08T15:09:48.513Z,14.05
2022-10-08T15:12:16.475Z,13.87
2022-10-08T15:14:44.101Z,13.72
2022-10-08T15:17:11.798Z,13.59
2022-10-08T15:19:39.481Z,13.47
2022-10-08T15:22:07.169Z,13.40
2022-10-08T15:24:34.970Z,13.40
2022-10-08T15:27:03.990Z,13.25
2022-10-08T15:29:31.690Z,13.20
2022-10-08T15:31:59.417Z,13.18
2022-10-08T15:34:27.165Z,13.14
2022-10-08T15:36:55.373Z,13.07
2022-10-08T15:39:23.066Z,12.93
2022-10-08T15:41:52.651Z,12.84
2022-10-08T15:44:23.791Z,12.85
2022-10-08T15:46:59.496Z,12.86
2022-10-08T15:49:31.377Z,12.88
2022-10-08T15:51:59.483Z,12.90
2022-10-08T15:54:27.157Z,12.90
2022-10-08T15:56:54.915Z,12.92
2022-10-08T15:59:24.102Z,12.98
2022-10-08T16:01:51.760Z,12.93
2022-10-08T16:04:19.446Z,12.93
2022-10-08T16:06:47.225Z,12.92
2022-10-08T16:09:15.757Z,12.88
2022-10-08T16:11:43.656Z,12.84
2022-10-08T16:14:14.012Z,12.86
2022-10-08T16:16:43.686Z,12.93
2022-10-08T16:19:13.769Z,12.92
2022-10-08T16:21:41.425Z,12.93
2022-10-08T16:24:09.156Z,12.94
2022-10-08T16:26:37.638Z,12.95
2022-10-08T16:29:07.068Z,13.04
2022-10-08T16:31:36.206Z,13.06
2022-10-08T16:34:07.372Z,13.09
2022-10-08T16:36:36.521Z,13.07
2022-10-08T16:39:05.187Z,13.08
2022-10-08T16:41:34.633Z,13.00
2022-10-08T16:44:11.825Z,12.98
2022-10-08T16:46:42.236Z,12.93
2022-10-08T16:49:19.618Z,12.89
2022-10-08T16:51:51.499Z,12.87
2022-10-08T16:54:19.859Z,12.85
2022-10-08T16:56:48.024Z,12.83
2022-10-08T16:59:19.004Z,12.74
2022-10-08T17:01:48.655Z,12.75
2022-10-08T17:04:18.955Z,12.75
2022-10-08T17:06:47.219Z,12.70
2022-10-08T17:09:15.189Z,12.73
2022-10-08T17:11:42.892Z,12.76
2022-10-08T17:14:11.641Z,12.78
2022-10-08T17:16:40.695Z,12.69
2022-10-08T17:19:08.479Z,12.68
2022-10-08T17:21:38.282Z,12.66
2022-10-08T17:24:06.645Z,12.70
2022-10-08T17:26:35.086Z,12.70
2022-10-08T17:29:06.916Z,12.80
2022-10-08T17:31:35.561Z,12.79
2022-10-08T17:34:04.844Z,12.84
2022-10-08T17:36:34.802Z,12.85
2022-10-08T17:39:06.821Z,12.84
2022-10-08T17:41:36.177Z,12.88
2022-10-08T17:44:06.810Z,12.81
2022-10-08T17:46:36.058Z,12.75
2022-10-08T17:49:04.127Z,12.67
2022-10-08T17:51:32.089Z,12.62
2022-10-08T17:54:01.527Z,12.59
2022-10-08T17:56:31.438Z,12.60
2022-10-08T17:58:59.635Z,12.47
2022-10-08T18:01:29.396Z,12.43
2022-10-08T18:03:59.669Z,12.36
2022-10-08T18:06:28.987Z,12.33
2022-10-08T18:08:57.550Z,12.30
2022-10-08T18:11:26.108Z,12.25
2022-10-08T18:13:55.347Z,12.24
2022-10-08T18:16:25.246Z,12.24
2022-10-08T18:18:53.170Z,12.24
2022-10-08T18:21:21.562Z,12.23
2022-10-08T18:23:49.899Z,12.22
2022-10-08T18:26:19.526Z,12.21
2022-10-08T18:28:49.214Z,12.23
2022-10-08T18:31:19.742Z,12.30
2022-10-08T18:33:49.728Z,12.23
2022-10-08T18:36:18.834Z,12.19
2022-10-08T18:38:48.866Z,12.19
2022-10-08T18:41:18.732Z,12.20
2022-10-08T18:43:47.683Z,12.24
2022-10-08T18:46:17.167Z,12.27
2022-10-08T18:48:47.000Z,12.28
2022-10-08T18:51:17.759Z,12.25
2022-10-08T18:53:46.935Z,12.21
2022-10-08T18:56:17.070Z,12.13
2022-10-08T18:58:45.227Z,12.12
2022-10-08T19:01:18.745Z,12.08
2022-10-08T19:03:49.342Z,12.06
2022-10-08T19:06:17.943Z,12.05
2022-10-08T19:08:45.699Z,12.05
2022-10-08T19:11:15.504Z,12.05
2022-10-08T19:13:44.220Z,12.04
2022-10-08T19:16:14.197Z,12.03
2022-10-08T19:18:46.452Z,12.01
2022-10-08T19:21:15.730Z,12.05
2022-10-08T19:23:43.420Z,12.01
2022-10-08T19:26:11.591Z,11.95
2022-10-08T19:28:41.017Z,11.89
2022-10-08T19:31:17.120Z,11.91
2022-10-08T19:33:49.838Z,11.92
2022-10-08T19:36:19.982Z,11.89
2022-10-08T19:38:52.361Z,11.85
2022-10-08T19:41:20.498Z,11.80
2022-10-08T19:43:48.182Z,11.80
2022-10-08T19:46:16.340Z,11.77
2022-10-08T19:48:49.124Z,11.71
2022-10-08T19:51:19.816Z,11.67
2022-10-08T19:53:48.065Z,11.61
2022-10-08T19:56:16.694Z,11.56
2022-10-08T19:58:48.647Z,11.49
2022-10-08T20:01:18.177Z,11.51
2022-10-08T20:03:46.821Z,11.58
2022-10-08T20:06:20.377Z,11.57
2022-10-08T20:08:53.767Z,11.51
2022-10-08T20:11:21.905Z,11.44
2022-10-08T20:13:51.040Z,11.39
2022-10-08T20:16:20.950Z,11.40
2022-10-08T20:18:52.760Z,11.36
2022-10-08T20:21:21.449Z,11.35
2022-10-08T20:23:49.731Z,11.31
2022-10-08T20:26:21.795Z,11.27
2022-10-08T20:28:51.598Z,11.25
2022-10-08T20:31:21.897Z,11.25
2022-10-08T20:33:56.150Z,11.40
2022-10-08T20:36:24.470Z,11.43
2022-10-08T20:38:52.373Z,11.42
2022-10-08T20:41:25.449Z,11.36
2022-10-08T20:44:00.270Z,11.39
2022-10-08T20:46:28.322Z,11.39
2022-10-08T20:48:56.211Z,11.40
2022-10-08T20:51:26.530Z,11.31
2022-10-08T20:53:56.670Z,11.23
2022-10-08T20:56:26.599Z,11.21
2022-10-08T20:58:55.571Z,11.11
2022-10-08T21:01:25.340Z,11.06
2022-10-08T21:03:54.489Z,10.95
2022-10-08T21:06:24.264Z,10.92
2022-10-08T21:08:53.781Z,10.95
2022-10-08T21:11:23.381Z,10.93
2022-10-08T21:13:52.414Z,10.80
2022-10-08T21:16:22.460Z,10.76
2022-10-08T21:18:50.886Z,10.72
2022-10-08T21:21:19.749Z,10.64
2022-10-08T21:23:48.946Z,10.64
2022-10-08T21:26:18.965Z,10.52
2022-10-08T21:28:49.555Z,10.48
2022-10-08T21:31:20.012Z,10.44
2022-10-08T21:33:49.232Z,10.45
2022-10-08T21:36:19.393Z,10.36
2022-10-08T21:38:47.347Z,10.33
2022-10-08T21:41:16.784Z,10.26
2022-10-08T21:43:46.705Z,10.24
2022-10-08T21:46:16.114Z,10.13
2022-10-08T21:48:45.519Z,10.13
2022-10-08T21:51:15.742Z,10.12
2022-10-08T21:53:46.619Z,10.12
2022-10-08T21:56:16.373Z,10.13
2022-10-08T21:58:45.628Z,10.07
2022-10-08T22:01:21.628Z,10.10
2022-10-08T22:03:54.240Z,10.07
2022-10-08T22:06:22.485Z,10.08
2022-10-08T22:08:50.554Z,10.08
2022-10-08T22:11:19.269Z,10.07
2022-10-08T22:13:47.527Z,10.06
2022-10-08T22:16:17.208Z,9.95
2022-10-08T22:18:45.353Z,9.84
2022-10-08T22:21:17.150Z,9.75
2022-10-08T22:23:44.977Z,9.78
2022-10-08T22:26:14.617Z,9.78
2022-10-08T22:28:42.925Z,9.77
2022-10-08T22:31:12.137Z,9.82
2022-10-08T22:33:40.449Z,9.72
2022-10-08T22:36:10.829Z,9.66
2022-10-08T22:38:41.614Z,9.61
2022-10-08T22:41:12.243Z,9.56
2022-10-08T22:43:41.545Z,9.53
2022-10-08T22:46:11.506Z,9.54
2022-10-08T22:48:39.526Z,9.53
2022-10-08T22:51:10.381Z,9.54
2022-10-08T22:53:40.096Z,9.56
2022-10-08T22:56:11.937Z,9.62
2022-10-08T22:58:39.768Z,9.57
2022-10-08T23:05:18.945Z,9.26
2022-10-08T23:07:46.626Z,9.29
2022-10-08T23:10:14.423Z,9.29
2022-10-08T23:12:42.108Z,9.29
2022-10-08T23:15:10.866Z,9.30
2022-10-08T23:17:39.000Z,9.26
2022-10-08T23:20:07.667Z,9.18
2022-10-08T23:22:36.699Z,9.16
2022-10-08T23:25:04.907Z,9.13
2022-10-08T23:27:32.566Z,9.05
2022-10-08T23:30:01.660Z,9.02
2022-10-08T23:32:29.311Z,9.08
2022-10-08T23:34:56.940Z,9.03
2022-10-08T23:37:24.695Z,8.93
2022-10-08T23:39:57.820Z,8.85
2022-10-08T23:42:26.071Z,8.82
2022-10-08T23:44:54.278Z,8.79
2022-10-08T23:47:21.918Z,8.73
2022-10-08T23:49:49.575Z,8.68
2022-10-08T23:52:17.202Z,8.58
2022-10-08T23:54:44.919Z,8.50
2022-10-08T23:57:13.933Z,8.48
2022-10-08T23:59:41.821Z,8.48
